createdAt,value
2019-05-16T00:01:48.637Z,8.08
2019-05-16T00:04:28.557Z,8.13
2019-05-16T00:07:07.895Z,8.43
2019-05-16T00:09:44.944Z,8.10
2019-05-16T00:12:28.954Z,7.80
2019-05-16T00:15:02.371Z,7.05
2019-05-16T00:17:39.989Z,6.58
2019-05-16T00:20:19.900Z,6.20
2019-05-16T00:22:55.089Z,5.90
2019-05-16T00:25:34.508Z,4.50
2019-05-16T00:28:12.076Z,5.33
2019-05-16T00:30:49.783Z,5.37
2019-05-16T00:33:28.636Z,5.55
2019-05-16T00:36:09.142Z,5.05
2019-05-16T00:38:48.507Z,5.90
2019-05-16T00:41:28.336Z,5.33
2019-05-16T00:44:05.531Z,5.60
2019-05-16T00:46:44.605Z,6.20
2019-05-16T00:49:23.853Z,4.83
2019-05-16T00:52:03.193Z,3.72
2019-05-16T00:54:40.896Z,4.30
2019-05-16T00:57:19.232Z,4.30
2019-05-16T00:59:59.366Z,4.20
2019-05-16T01:02:38.172Z,3.87
2019-05-16T01:05:21.194Z,3.72
2019-05-16T01:08:00.471Z,3.60
2019-05-16T01:10:39.802Z,2.95
2019-05-16T01:13:19.304Z,3.47
2019-05-16T01:15:57.984Z,4.15
2019-05-16T01:18:37.971Z,3.58
2019-05-16T01:21:13.165Z,3.83
2019-05-16T01:23:54.668Z,4.17
2019-05-16T01:26:32.370Z,4.33
2019-05-16T01:29:12.706Z,4.00
2019-05-16T01:31:50.308Z,4.05
2019-05-16T01:34:31.408Z,3.72
2019-05-16T01:37:08.285Z,3.77
2019-05-16T01:39:48.399Z,4.40
2019-05-16T01:42:27.710Z,2.80
2019-05-16T01:45:04.907Z,2.05
2019-05-16T01:47:42.658Z,2.83
2019-05-16T01:50:22.940Z,3.25
2019-05-16T01:53:00.659Z,3.90
2019-05-16T01:55:38.354Z,3.50
2019-05-16T01:58:19.414Z,3.30
2019-05-16T02:01:05.987Z,3.10
2019-05-16T02:03:32.387Z,3.30
2019-05-16T02:06:11.766Z,3.77
2019-05-16T02:08:48.764Z,3.80
2019-05-16T02:11:28.381Z,3.15
2019-05-16T02:14:05.803Z,3.50
2019-05-16T02:16:44.518Z,2.70
2019-05-16T02:19:19.733Z,2.87
2019-05-16T02:21:54.934Z,2.25
2019-05-16T02:24:32.508Z,2.47
2019-05-16T02:27:10.466Z,2.25
2019-05-16T02:29:50.684Z,2.70
2019-05-16T02:32:31.278Z,2.30
2019-05-16T02:35:11.294Z,2.75
2019-05-16T02:37:47.437Z,2.27
2019-05-16T02:40:31.317Z,3.05
2019-05-16T02:43:06.035Z,2.40
2019-05-16T02:45:45.083Z,5.87
2019-05-16T02:48:23.130Z,2.35
2019-05-16T02:51:01.859Z,1.90
2019-05-16T02:53:42.109Z,2.33
2019-05-16T02:56:21.185Z,2.87
2019-05-16T02:59:01.397Z,2.60
2019-05-16T03:01:40.659Z,2.33
2019-05-16T03:04:21.134Z,2.30
2019-05-16T03:07:00.369Z,2.12
2019-05-16T03:09:40.875Z,1.67
2019-05-16T03:12:17.161Z,1.80
2019-05-16T03:15:02.295Z,2.52
2019-05-16T03:20:54.782Z,2.30
2019-05-16T03:23:33.082Z,1.50
2019-05-16T03:26:11.817Z,1.47
2019-05-16T03:28:52.168Z,1.32
2019-05-16T03:31:27.006Z,2.10
2019-05-16T03:34:07.349Z,1.30
2019-05-16T03:36:44.088Z,1.27
2019-05-16T03:39:21.230Z,1.20
2019-05-16T03:42:01.090Z,1.60
2019-05-16T03:44:41.098Z,1.70
2019-05-16T03:47:21.669Z,1.40
2019-05-16T03:49:55.450Z,1.80
2019-05-16T03:52:31.080Z,1.32
2019-05-16T03:55:11.115Z,2.02
2019-05-16T03:57:51.944Z,1.20
2019-05-16T04:00:45.691Z,3.70
2019-05-16T04:03:22.686Z,1.62
2019-05-16T04:06:01.480Z,1.95
2019-05-16T04:08:41.217Z,1.75
2019-05-16T04:11:23.009Z,1.80
2019-05-16T04:13:56.414Z,1.50
2019-05-16T04:16:34.502Z,1.72
2019-05-16T04:19:12.882Z,1.60
2019-05-16T04:21:51.328Z,1.65
2019-05-16T04:24:31.653Z,1.27
2019-05-16T04:27:11.917Z,1.80
2019-05-16T04:29:51.075Z,4.25
2019-05-16T04:32:27.710Z,1.40
2019-05-16T04:35:06.922Z,1.30
2019-05-16T04:37:44.999Z,1.70
2019-05-16T04:40:23.347Z,2.12
2019-05-16T04:43:01.727Z,1.70
2019-05-16T04:45:41.368Z,1.52
2019-05-16T04:48:22.320Z,1.87
2019-05-16T04:51:01.018Z,3.58
2019-05-16T04:53:37.784Z,3.22
2019-05-16T04:56:16.932Z,1.67
2019-05-16T04:58:52.297Z,1.95
2019-05-16T05:01:30.832Z,1.52
2019-05-16T05:04:10.918Z,1.20
2019-05-16T05:06:45.492Z,1.75
2019-05-16T05:09:21.051Z,2.90
2019-05-16T05:12:00.428Z,8.58
2019-05-16T05:14:36.463Z,2.02
2019-05-16T05:17:14.938Z,1.60
2019-05-16T05:19:53.364Z,1.17
2019-05-16T05:22:31.804Z,1.40
2019-05-16T05:25:10.826Z,1.40
2019-05-16T05:27:50.132Z,1.72
2019-05-16T05:30:30.235Z,1.40
2019-05-16T05:33:10.164Z,1.65
2019-05-16T05:35:45.749Z,1.12
2019-05-16T05:38:26.543Z,1.45
2019-05-16T05:41:02.427Z,2.00
2019-05-16T05:43:40.075Z,2.10
2019-05-16T05:46:20.272Z,1.57
2019-05-16T05:49:00.012Z,1.47
2019-05-16T05:51:37.625Z,1.42
2019-05-16T05:54:17.527Z,1.30
2019-05-16T05:56:57.990Z,1.60
2019-05-16T05:59:37.556Z,1.40
2019-05-16T06:02:14.207Z,1.52
2019-05-16T06:04:51.711Z,1.50
2019-05-16T06:07:30.075Z,1.50
2019-05-16T06:10:07.265Z,1.40
2019-05-16T06:12:46.047Z,1.20
2019-05-16T06:15:23.241Z,1.40
2019-05-16T06:18:00.288Z,1.27
2019-05-16T06:20:37.482Z,1.40
2019-05-16T06:23:15.125Z,1.52
2019-05-16T06:25:52.834Z,1.50
2019-05-16T06:28:30.146Z,1.70
2019-05-16T06:31:13.015Z,1.37
2019-05-16T06:33:44.400Z,1.30
2019-05-16T06:36:23.948Z,1.50
2019-05-16T06:39:00.243Z,1.70
2019-05-16T06:41:36.354Z,1.90
2019-05-16T06:44:14.171Z,2.10
2019-05-16T06:47:07.248Z,1.80
2019-05-16T06:49:32.819Z,1.82
2019-05-16T06:52:14.382Z,2.00
2019-05-16T06:54:53.850Z,2.08
2019-05-16T06:57:30.962Z,1.90
2019-05-16T07:00:10.682Z,1.80
2019-05-16T07:02:49.710Z,1.80
2019-05-16T07:05:29.853Z,1.82
2019-05-16T07:08:10.303Z,1.85
2019-05-16T07:10:47.141Z,1.90
2019-05-16T07:13:25.322Z,2.15
2019-05-16T07:16:04.901Z,2.30
2019-05-16T07:18:42.804Z,2.12
2019-05-16T07:21:20.729Z,2.33
2019-05-16T07:24:00.037Z,2.10
2019-05-16T07:26:37.649Z,2.60
2019-05-16T07:29:15.325Z,2.50
2019-05-16T07:31:53.531Z,2.40
2019-05-16T07:34:31.342Z,2.25
2019-05-16T07:37:06.662Z,3.10
2019-05-16T07:39:51.209Z,2.98
2019-05-16T07:42:32.499Z,2.50
2019-05-16T07:45:11.373Z,5.42
2019-05-16T07:47:50.928Z,2.67
2019-05-16T07:50:30.223Z,3.65
2019-05-16T07:53:10.772Z,2.55
2019-05-16T07:55:50.585Z,2.00
2019-05-16T07:58:31.540Z,2.22
2019-05-16T08:01:08.973Z,2.42
2019-05-16T08:03:45.042Z,2.30
2019-05-16T08:06:26.971Z,1.98
2019-05-16T08:09:12.081Z,2.30
2019-05-16T08:11:45.193Z,2.22
2019-05-16T08:14:24.909Z,2.35
2019-05-16T08:17:01.327Z,2.12
2019-05-16T08:19:39.937Z,2.45
2019-05-16T08:22:22.162Z,2.60
2019-05-16T08:25:00.205Z,2.77
2019-05-16T08:27:40.951Z,2.72
2019-05-16T08:30:20.804Z,2.65
2019-05-16T08:32:56.184Z,2.60
2019-05-16T08:35:34.007Z,3.00
2019-05-16T08:38:13.742Z,3.10
2019-05-16T08:41:09.409Z,2.60
2019-05-16T08:43:31.584Z,3.95
2019-05-16T08:46:12.260Z,3.65
2019-05-16T08:48:45.596Z,3.40
2019-05-16T08:51:25.590Z,3.08
2019-05-16T08:54:03.442Z,3.58
2019-05-16T08:56:44.232Z,3.80
2019-05-16T08:59:21.539Z,4.60
2019-05-16T09:02:03.228Z,4.70
2019-05-16T09:04:43.802Z,4.17
2019-05-16T09:07:22.727Z,3.80
2019-05-16T09:10:00.190Z,3.50
2019-05-16T09:12:37.474Z,3.50
2019-05-16T09:15:17.123Z,5.60
2019-05-16T09:17:54.498Z,4.83
2019-05-16T09:20:37.256Z,4.08
2019-05-16T09:23:13.453Z,5.83
2019-05-16T09:25:50.620Z,6.50
2019-05-16T09:28:29.724Z,5.78
2019-05-16T09:31:06.856Z,4.15
2019-05-16T09:33:47.220Z,4.25
2019-05-16T09:36:23.027Z,4.20
2019-05-16T09:39:00.846Z,4.45
2019-05-16T09:41:54.517Z,5.50
2019-05-16T09:44:18.323Z,5.83
2019-05-16T09:47:01.947Z,5.33
2019-05-16T09:49:41.745Z,5.12
2019-05-16T09:52:19.588Z,6.30
2019-05-16T09:54:58.468Z,7.53
2019-05-16T09:57:39.265Z,6.78
2019-05-16T10:00:21.808Z,6.62
2019-05-16T10:02:59.625Z,6.12
2019-05-16T10:05:37.201Z,9.90
2019-05-16T10:08:17.387Z,10.00
2019-05-16T10:10:59.894Z,8.28
2019-05-16T10:13:39.824Z,8.48
2019-05-16T10:16:18.760Z,7.58
2019-05-16T10:18:56.806Z,8.15
2019-05-16T10:21:32.576Z,9.00
2019-05-16T10:24:10.291Z,8.58
2019-05-16T10:26:47.288Z,11.78
2019-05-16T10:29:27.144Z,9.30
2019-05-16T10:32:03.210Z,8.88
2019-05-16T10:34:41.562Z,8.40
2019-05-16T10:37:19.255Z,9.38
2019-05-16T10:39:59.982Z,8.78
2019-05-16T10:42:39.287Z,9.48
2019-05-16T10:45:17.124Z,10.48
2019-05-16T10:47:59.165Z,10.80
2019-05-16T10:50:37.363Z,12.23
2019-05-16T10:53:33.624Z,13.30
2019-05-16T10:55:56.894Z,13.20
2019-05-16T10:58:41.632Z,13.10
2019-05-16T11:01:26.578Z,13.70
2019-05-16T11:03:59.021Z,14.18
2019-05-16T11:06:37.267Z,12.98
2019-05-16T11:09:17.210Z,12.80
2019-05-16T11:11:56.931Z,13.13
2019-05-16T11:14:32.986Z,13.60
2019-05-16T11:17:13.215Z,13.32
2019-05-16T11:19:51.123Z,12.07
2019-05-16T11:22:30.018Z,13.15
2019-05-16T11:25:21.274Z,13.03
2019-05-16T11:27:48.420Z,13.72
2019-05-16T11:30:33.628Z,14.47
2019-05-16T11:33:12.518Z,13.62
2019-05-16T11:35:50.883Z,13.20
2019-05-16T11:38:32.697Z,13.95
2019-05-16T11:41:10.611Z,14.15
2019-05-16T11:43:50.132Z,12.58
2019-05-16T11:46:31.655Z,11.95
2019-05-16T11:49:09.773Z,11.48
2019-05-16T11:51:48.552Z,11.25
2019-05-16T11:54:27.974Z,10.70
2019-05-16T11:57:12.631Z,10.10
2019-05-16T11:59:50.588Z,9.70
2019-05-16T12:02:29.831Z,9.40
2019-05-16T12:05:09.121Z,10.72
2019-05-16T12:07:48.962Z,10.18
2019-05-16T12:10:27.092Z,10.38
2019-05-16T12:13:02.832Z,10.85
2019-05-16T12:15:38.256Z,10.80
2019-05-16T12:18:13.932Z,13.13
2019-05-16T12:20:49.023Z,11.20
2019-05-16T12:23:24.264Z,10.95
2019-05-16T12:26:03.178Z,10.90
2019-05-16T12:28:43.430Z,10.45
2019-05-16T12:31:23.358Z,9.48
2019-05-16T12:34:04.237Z,10.00
2019-05-16T12:36:47.090Z,9.15
2019-05-16T12:39:26.688Z,9.33
2019-05-16T12:42:03.159Z,9.43
2019-05-16T12:44:42.345Z,10.00
2019-05-16T12:47:24.524Z,9.00
2019-05-16T12:50:04.366Z,10.68
2019-05-16T12:52:42.066Z,10.43
2019-05-16T12:55:19.979Z,9.30
2019-05-16T12:58:12.306Z,9.38
2019-05-16T13:00:37.254Z,8.93
2019-05-16T13:03:15.134Z,7.72
2019-05-16T13:05:54.155Z,7.85
2019-05-16T13:08:31.769Z,7.53
2019-05-16T13:11:10.822Z,7.58
2019-05-16T13:14:02.543Z,7.30
2019-05-16T13:16:31.073Z,8.18
2019-05-16T13:19:10.679Z,7.47
2019-05-16T13:21:51.098Z,7.00
2019-05-16T13:24:28.838Z,7.37
2019-05-16T13:27:13.314Z,7.53
2019-05-16T13:29:50.125Z,7.42
2019-05-16T13:32:27.926Z,6.97
2019-05-16T13:35:07.630Z,7.20
2019-05-16T13:37:47.798Z,7.70
2019-05-16T13:40:27.632Z,7.50
2019-05-16T13:43:02.570Z,7.30
2019-05-16T13:45:41.343Z,7.05
2019-05-16T13:48:22.964Z,7.05
2019-05-16T13:51:10.538Z,6.70
2019-05-16T13:53:41.401Z,7.00
2019-05-16T13:56:20.393Z,6.85
2019-05-16T13:58:58.203Z,6.67
2019-05-16T14:01:37.723Z,6.28
2019-05-16T14:04:17.286Z,6.12
2019-05-16T14:06:58.946Z,6.40
2019-05-16T14:09:37.784Z,6.17
2019-05-16T14:12:17.670Z,6.72
2019-05-16T14:14:57.500Z,6.05
2019-05-16T14:17:37.206Z,6.50
2019-05-16T14:20:18.151Z,6.25
2019-05-16T14:23:01.073Z,5.87
2019-05-16T14:25:38.995Z,6.17
2019-05-16T14:28:17.387Z,6.00
2019-05-16T14:31:01.226Z,5.80
2019-05-16T14:33:39.946Z,6.67
2019-05-16T14:36:15.131Z,6.45
2019-05-16T14:38:57.354Z,6.70
2019-05-16T14:41:33.659Z,6.78
2019-05-16T14:44:11.438Z,6.80
2019-05-16T14:46:49.359Z,6.87
2019-05-16T14:49:31.020Z,6.97
2019-05-16T14:52:14.920Z,7.45
2019-05-16T14:54:50.063Z,6.50
2019-05-16T14:57:27.787Z,6.20
2019-05-16T15:00:07.306Z,6.80
2019-05-16T15:02:41.748Z,6.40
2019-05-16T15:05:19.499Z,6.30
2019-05-16T15:07:58.595Z,6.60
2019-05-16T15:10:37.597Z,6.72
2019-05-16T15:13:17.238Z,7.95
2019-05-16T15:15:53.880Z,6.92
2019-05-16T15:18:31.400Z,6.90
2019-05-16T15:21:10.318Z,6.40
2019-05-16T15:23:49.914Z,6.70
2019-05-16T15:26:29.590Z,6.40
2019-05-16T15:29:08.182Z,6.65
2019-05-16T15:31:46.720Z,6.55
2019-05-16T15:34:29.974Z,6.17
2019-05-16T15:37:00.915Z,6.72
2019-05-16T15:39:38.747Z,6.33
2019-05-16T15:42:18.176Z,6.65
2019-05-16T15:44:56.034Z,6.35
2019-05-16T15:47:33.684Z,6.50
2019-05-16T15:50:12.207Z,6.72
2019-05-16T15:52:52.044Z,6.60
2019-05-16T15:55:29.828Z,6.80
2019-05-16T15:58:10.197Z,6.67
2019-05-16T16:00:50.836Z,6.97
2019-05-16T16:03:29.774Z,6.62
2019-05-16T16:06:11.752Z,7.25
2019-05-16T16:08:49.537Z,6.90
2019-05-16T16:11:27.363Z,6.85
2019-05-16T16:14:06.814Z,7.10
2019-05-16T16:16:43.835Z,6.62
2019-05-16T16:19:21.555Z,7.10
2019-05-16T16:22:01.349Z,6.90
2019-05-16T16:24:39.036Z,7.75
2019-05-16T16:27:20.560Z,7.40
2019-05-16T16:29:58.229Z,7.40
2019-05-16T16:32:39.800Z,7.58
2019-05-16T16:35:19.506Z,7.35
2019-05-16T16:37:59.282Z,7.47
2019-05-16T16:40:38.289Z,6.97
2019-05-16T16:43:18.107Z,6.80
2019-05-16T16:46:06.169Z,7.08
2019-05-16T16:48:36.465Z,7.05
2019-05-16T16:51:17.660Z,7.40
2019-05-16T16:53:56.873Z,7.70
2019-05-16T16:56:37.312Z,7.40
2019-05-16T16:59:12.726Z,7.42
2019-05-16T17:01:51.456Z,8.18
2019-05-16T17:04:29.241Z,8.13
2019-05-16T17:07:06.927Z,8.28
2019-05-16T17:09:48.739Z,7.70
2019-05-16T17:12:26.438Z,7.97
2019-05-16T17:15:08.446Z,7.92
2019-05-16T17:17:46.646Z,7.85
2019-05-16T17:20:24.914Z,8.23
2019-05-16T17:23:06.914Z,7.40
2019-05-16T17:25:46.985Z,7.58
2019-05-16T17:28:21.223Z,7.97
2019-05-16T17:31:00.908Z,7.70
2019-05-16T17:33:38.570Z,7.22
2019-05-16T17:36:17.893Z,7.47
2019-05-16T17:38:57.135Z,7.12
2019-05-16T17:41:36.713Z,7.50
2019-05-16T17:44:14.311Z,7.05
2019-05-16T17:46:52.978Z,7.53
2019-05-16T17:49:33.689Z,7.70
2019-05-16T17:52:11.739Z,7.78
2019-05-16T17:54:49.480Z,7.45
2019-05-16T17:57:29.126Z,7.78
2019-05-16T18:00:12.919Z,7.75
2019-05-16T18:06:27.937Z,8.00
2019-05-16T18:09:08.740Z,8.03
2019-05-16T18:11:47.484Z,7.97
2019-05-16T18:14:25.252Z,8.18
2019-05-16T18:17:07.639Z,7.67
2019-05-16T18:19:46.470Z,7.97
2019-05-16T18:22:24.987Z,8.33
2019-05-16T18:25:02.548Z,11.75
2019-05-16T18:27:41.476Z,9.00
2019-05-16T18:30:19.558Z,8.83
2019-05-16T18:32:57.304Z,8.65
2019-05-16T18:35:36.708Z,8.30
2019-05-16T18:38:13.697Z,8.38
2019-05-16T18:40:51.300Z,8.68
2019-05-16T18:43:30.914Z,9.00
2019-05-16T18:46:10.572Z,9.23
2019-05-16T18:48:48.231Z,9.43
2019-05-16T18:51:27.811Z,9.18
2019-05-16T18:54:08.174Z,9.90
2019-05-16T18:56:44.094Z,9.08
2019-05-16T18:59:22.888Z,10.30
2019-05-16T19:02:00.513Z,16.50
2019-05-16T19:04:42.069Z,10.30
2019-05-16T19:07:19.731Z,10.15
2019-05-16T19:09:57.527Z,9.90
2019-05-16T19:12:37.142Z,11.08
2019-05-16T19:15:17.519Z,9.90
2019-05-16T19:17:58.458Z,10.50
2019-05-16T19:20:37.548Z,11.12
2019-05-16T19:23:17.359Z,11.73
2019-05-16T19:25:56.728Z,12.37
2019-05-16T19:28:33.504Z,13.40
2019-05-16T19:31:11.954Z,13.60
2019-05-16T19:33:50.740Z,13.88
2019-05-16T19:36:28.826Z,13.43
2019-05-16T19:39:06.809Z,14.45
2019-05-16T19:41:46.479Z,14.03
2019-05-16T19:44:27.240Z,13.43
2019-05-16T19:47:03.796Z,13.70
2019-05-16T19:49:46.316Z,14.87
2019-05-16T19:52:23.216Z,14.55
2019-05-16T19:55:00.799Z,16.20
2019-05-16T19:57:38.603Z,16.10
2019-05-16T20:00:18.338Z,16.80
2019-05-16T20:02:56.978Z,18.32
2019-05-16T20:05:37.226Z,17.95
2019-05-16T20:08:17.526Z,19.07
2019-05-16T20:10:58.611Z,18.32
2019-05-16T20:13:38.615Z,17.85
2019-05-16T20:16:18.459Z,17.20
2019-05-16T20:18:56.148Z,17.15
2019-05-16T20:21:36.815Z,16.80
2019-05-16T20:24:12.918Z,16.35
2019-05-16T20:26:54.272Z,15.85
2019-05-16T20:29:33.128Z,15.58
2019-05-16T20:32:11.586Z,14.87
2019-05-16T20:34:52.465Z,14.60
2019-05-16T20:37:36.727Z,14.15
2019-05-16T20:40:17.136Z,14.60
2019-05-16T20:42:53.746Z,14.23
2019-05-16T20:45:32.925Z,14.53
2019-05-16T20:48:15.184Z,14.50
2019-05-16T20:50:56.863Z,14.98
2019-05-16T20:53:33.829Z,17.12
2019-05-16T20:56:11.795Z,14.07
2019-05-16T20:58:49.570Z,15.03
2019-05-16T21:01:27.190Z,14.75
2019-05-16T21:04:07.255Z,14.98
2019-05-16T21:06:59.945Z,15.43
2019-05-16T21:09:26.381Z,15.63
2019-05-16T21:12:05.223Z,15.53
2019-05-16T21:14:42.926Z,15.00
2019-05-16T21:17:20.573Z,16.65
2019-05-16T21:20:04.331Z,16.30
2019-05-16T21:22:41.967Z,15.98
2019-05-16T21:25:19.748Z,15.55
2019-05-16T21:28:08.089Z,16.52
2019-05-16T21:30:47.390Z,15.48
2019-05-16T21:33:27.353Z,15.58
2019-05-16T21:36:07.034Z,16.17
2019-05-16T21:38:46.909Z,15.75
2019-05-16T21:41:27.093Z,16.10
2019-05-16T21:44:06.390Z,14.50
2019-05-16T21:46:44.024Z,14.53
2019-05-16T21:49:21.672Z,14.63
2019-05-16T21:52:05.568Z,14.75
2019-05-16T21:54:47.069Z,14.40
2019-05-16T21:57:26.782Z,14.87
2019-05-16T22:00:07.186Z,15.10
2019-05-16T22:02:47.290Z,14.00
2019-05-16T22:05:25.058Z,14.87
2019-05-16T22:08:02.709Z,14.70
2019-05-16T22:10:40.401Z,14.65
2019-05-16T22:13:18.150Z,14.23
2019-05-16T22:15:57.392Z,15.08
2019-05-16T22:18:38.568Z,14.28
2019-05-16T22:21:16.712Z,14.20
2019-05-16T22:23:54.409Z,13.78
2019-05-16T22:26:32.293Z,14.87
2019-05-16T22:29:14.180Z,14.10
2019-05-16T22:31:59.237Z,13.90
2019-05-16T22:34:38.725Z,14.00
2019-05-16T22:37:17.200Z,14.20
2019-05-16T22:39:59.352Z,14.50
2019-05-16T22:42:37.522Z,14.23
2019-05-16T22:45:17.545Z,13.85
2019-05-16T22:47:56.818Z,14.45
2019-05-16T22:50:36.470Z,14.05
2019-05-16T22:53:14.415Z,13.50
2019-05-16T22:55:53.352Z,12.73
2019-05-16T22:58:28.554Z,12.23
2019-05-16T23:01:06.929Z,11.45
2019-05-16T23:03:42.635Z,11.55
2019-05-16T23:06:20.302Z,11.63
2019-05-16T23:08:58.019Z,11.15
2019-05-16T23:11:37.068Z,10.13
2019-05-16T23:14:17.097Z,9.90
2019-05-16T23:17:01.443Z,9.90
2019-05-16T23:19:39.108Z,9.10
2019-05-16T23:22:18.437Z,8.60
2019-05-16T23:24:57.483Z,8.15
2019-05-16T23:27:32.651Z,8.20
2019-05-16T23:30:11.609Z,7.75
2019-05-16T23:32:51.478Z,8.00
2019-05-16T23:35:26.893Z,7.55
2019-05-16T23:38:02.010Z,7.15
2019-05-16T23:40:39.525Z,7.62
2019-05-16T23:43:14.621Z,7.60
2019-05-16T23:45:52.274Z,7.20
2019-05-16T23:48:33.273Z,7.25
2019-05-16T23:51:08.404Z,6.12
2019-05-16T23:53:43.458Z,6.70
2019-05-16T23:56:19.916Z,6.12
2019-05-16T23:58:56.846Z,6.45
